sensor_id;sensor_type;location;lat;lon;timestamp;temperature;humidity
6270;DHT22;3168;51.684;6.954;2022-07-21T00:00:27;19.60;99.90
6270;DHT22;3168;51.684;6.954;2022-07-21T00:02:53;19.60;99.90
6270;DHT22;3168;51.684;6.954;2022-07-21T00:05:19;19.60;99.90
6270;DHT22;3168;51.684;6.954;2022-07-21T00:07:45;19.70;99.90
6270;DHT22;3168;51.684;6.954;2022-07-21T00:10:10;19.70;99.90
6270;DHT22;3168;51.684;6.954;2022-07-21T00:12:36;19.70;99.90
6270;DHT22;3168;51.684;6.954;2022-07-21T00:15:03;19.80;99.90
6270;DHT22;3168;51.684;6.954;2022-07-21T00:17:28;19.90;99.90
6270;DHT22;3168;51.684;6.954;2022-07-21T00:19:54;19.90;99.90
6270;DHT22;3168;51.684;6.954;2022-07-21T00:22:21;19.80;99.90
6270;DHT22;3168;51.684;6.954;2022-07-21T00:24:46;19.80;99.90
6270;DHT22;3168;51.684;6.954;2022-07-21T00:27:12;19.80;99.90
6270;DHT22;3168;51.684;6.954;2022-07-21T00:29:39;19.70;99.90
6270;DHT22;3168;51.684;6.954;2022-07-21T00:32:05;19.70;99.90
6270;DHT22;3168;51.684;6.954;2022-07-21T00:34:31;19.60;99.90
6270;DHT22;3168;51.684;6.954;2022-07-21T00:36:57;19.70;99.90
6270;DHT22;3168;51.684;6.954;2022-07-21T00:39:23;19.70;99.90
6270;DHT22;3168;51.684;6.954;2022-07-21T00:41:49;19.70;99.90
6270;DHT22;3168;51.684;6.954;2022-07-21T00:44:23;19.70;99.90
6270;DHT22;3168;51.684;6.954;2022-07-21T00:46:48;19.80;99.90
6270;DHT22;3168;51.684;6.954;2022-07-21T00:49:14;19.80;99.90
6270;DHT22;3168;51.684;6.954;2022-07-21T00:51:39;19.80;99.90
6270;DHT22;3168;51.684;6.954;2022-07-21T00:54:05;19.80;99.90
6270;DHT22;3168;51.684;6.954;2022-07-21T00:56:31;19.70;99.90
6270;DHT22;3168;51.684;6.954;2022-07-21T00:58:57;19.60;99.90
6270;DHT22;3168;51.684;6.954;2022-07-21T01:01:23;19.50;99.90
6270;DHT22;3168;51.684;6.954;2022-07-21T01:03:49;19.50;99.90
6270;DHT22;3168;51.684;6.954;2022-07-21T01:06:14;19.60;99.90
6270;DHT22;3168;51.684;6.954;2022-07-21T01:08:40;19.40;99.90
6270;DHT22;3168;51.684;6.954;2022-07-21T01:11:06;19.50;99.90
6270;DHT22;3168;51.684;6.954;2022-07-21T01:13:32;19.50;99.90
6270;DHT22;3168;51.684;6.954;2022-07-21T01:15:58;19.50;99.90
6270;DHT22;3168;51.684;6.954;2022-07-21T01:18:24;19.50;99.90
6270;DHT22;3168;51.684;6.954;2022-07-21T01:20:51;19.50;99.90
6270;DHT22;3168;51.684;6.954;2022-07-21T01:23:15;19.50;99.90
6270;DHT22;3168;51.684;6.954;2022-07-21T01:25:46;19.40;99.90
6270;DHT22;3168;51.684;6.954;2022-07-21T01:28:08;19.40;99.90
6270;DHT22;3168;51.684;6.954;2022-07-21T01:30:33;19.40;99.90
6270;DHT22;3168;51.684;6.954;2022-07-21T01:32:59;19.40;99.90
6270;DHT22;3168;51.684;6.954;2022-07-21T01:35:25;19.30;99.90
6270;DHT22;3168;51.684;6.954;2022-07-21T01:37:51;19.30;99.90
6270;DHT22;3168;51.684;6.954;2022-07-21T01:40:17;19.30;99.90
6270;DHT22;3168;51.684;6.954;2022-07-21T01:42:49;19.20;99.90
6270;DHT22;3168;51.684;6.954;2022-07-21T01:45:14;19.10;99.90
6270;DHT22;3168;51.684;6.954;2022-07-21T01:47:40;19.10;99.90
6270;DHT22;3168;51.684;6.954;2022-07-21T01:50:07;19.10;99.90
6270;DHT22;3168;51.684;6.954;2022-07-21T01:52:32;19.10;99.90
6270;DHT22;3168;51.684;6.954;2022-07-21T01:54:58;19.20;99.90
6270;DHT22;3168;51.684;6.954;2022-07-21T01:57:24;19.20;99.90
6270;DHT22;3168;51.684;6.954;2022-07-21T01:59:50;19.30;99.90
6270;DHT22;3168;51.684;6.954;2022-07-21T02:02:16;19.30;99.90
6270;DHT22;3168;51.684;6.954;2022-07-21T02:04:42;19.20;99.90
6270;DHT22;3168;51.684;6.954;2022-07-21T02:07:07;19.20;99.90
6270;DHT22;3168;51.684;6.954;2022-07-21T02:09:33;19.10;99.90
6270;DHT22;3168;51.684;6.954;2022-07-21T02:11:59;19.10;99.90
6270;DHT22;3168;51.684;6.954;2022-07-21T02:14:25;19.00;99.90
6270;DHT22;3168;51.684;6.954;2022-07-21T02:16:51;19.10;99.90
6270;DHT22;3168;51.684;6.954;2022-07-21T02:19:17;19.10;99.90
6270;DHT22;3168;51.684;6.954;2022-07-21T02:21:42;19.00;99.90
6270;DHT22;3168;51.684;6.954;2022-07-21T02:24:08;18.90;99.90
6270;DHT22;3168;51.684;6.954;2022-07-21T02:26:34;18.90;99.90
6270;DHT22;3168;51.684;6.954;2022-07-21T02:29:00;18.90;99.90
6270;DHT22;3168;51.684;6.954;2022-07-21T02:31:26;18.90;99.90
6270;DHT22;3168;51.684;6.954;2022-07-21T02:33:52;18.80;99.90
6270;DHT22;3168;51.684;6.954;2022-07-21T02:36:17;18.70;99.90
6270;DHT22;3168;51.684;6.954;2022-07-21T02:38:44;18.70;99.90
6270;DHT22;3168;51.684;6.954;2022-07-21T02:41:10;18.70;99.90
6270;DHT22;3168;51.684;6.954;2022-07-21T02:43:36;18.60;99.90
6270;DHT22;3168;51.684;6.954;2022-07-21T02:46:02;18.70;99.90
6270;DHT22;3168;51.684;6.954;2022-07-21T02:48:27;18.70;99.90
6270;DHT22;3168;51.684;6.954;2022-07-21T02:50:53;18.80;99.90
6270;DHT22;3168;51.684;6.954;2022-07-21T02:53:19;18.70;99.90
6270;DHT22;3168;51.684;6.954;2022-07-21T02:55:46;18.70;99.90
6270;DHT22;3168;51.684;6.954;2022-07-21T02:58:12;18.70;99.90
6270;DHT22;3168;51.684;6.954;2022-07-21T03:00:39;18.70;99.90
6270;DHT22;3168;51.684;6.954;2022-07-21T03:03:04;18.70;99.90
6270;DHT22;3168;51.684;6.954;2022-07-21T03:05:31;18.70;99.90
6270;DHT22;3168;51.684;6.954;2022-07-21T03:07:56;18.70;99.90
6270;DHT22;3168;51.684;6.954;2022-07-21T03:10:22;18.70;99.90
6270;DHT22;3168;51.684;6.954;2022-07-21T03:12:48;18.70;99.90
6270;DHT22;3168;51.684;6.954;2022-07-21T03:15:14;18.70;99.90
6270;DHT22;3168;51.684;6.954;2022-07-21T03:17:39;18.70;99.90
6270;DHT22;3168;51.684;6.954;2022-07-21T03:20:06;18.70;99.90
6270;DHT22;3168;51.684;6.954;2022-07-21T03:22:32;18.70;99.90
6270;DHT22;3168;51.684;6.954;2022-07-21T03:24:58;18.70;99.90
6270;DHT22;3168;51.684;6.954;2022-07-21T03:27:24;18.70;99.90
6270;DHT22;3168;51.684;6.954;2022-07-21T03:29:50;18.70;99.90
6270;DHT22;3168;51.684;6.954;2022-07-21T03:32:16;18.70;99.90
6270;DHT22;3168;51.684;6.954;2022-07-21T03:34:42;18.60;99.90
6270;DHT22;3168;51.684;6.954;2022-07-21T03:37:07;18.70;99.90
6270;DHT22;3168;51.684;6.954;2022-07-21T03:39:33;18.70;99.90
6270;DHT22;3168;51.684;6.954;2022-07-21T03:41:59;18.60;99.90
6270;DHT22;3168;51.684;6.954;2022-07-21T03:44:25;18.70;99.90
6270;DHT22;3168;51.684;6.954;2022-07-21T03:46:51;18.70;99.90
6270;DHT22;3168;51.684;6.954;2022-07-21T03:49:17;18.60;99.90
6270;DHT22;3168;51.684;6.954;2022-07-21T03:51:43;18.60;99.90
6270;DHT22;3168;51.684;6.954;2022-07-21T03:54:08;18.70;99.90
6270;DHT22;3168;51.684;6.954;2022-07-21T03:56:34;18.70;99.90
6270;DHT22;3168;51.684;6.954;2022-07-21T03:59:00;18.70;99.90
6270;DHT22;3168;51.684;6.954;2022-07-21T04:01:26;18.60;99.90
6270;DHT22;3168;51.684;6.954;2022-07-21T04:03:52;18.70;99.90
6270;DHT22;3168;51.684;6.954;2022-07-21T04:06:18;18.70;99.90
6270;DHT22;3168;51.684;6.954;2022-07-21T04:08:43;18.60;99.90
6270;DHT22;3168;51.684;6.954;2022-07-21T04:11:10;18.50;99.90
6270;DHT22;3168;51.684;6.954;2022-07-21T04:13:36;18.50;99.90
6270;DHT22;3168;51.684;6.954;2022-07-21T04:16:02;18.60;99.90
6270;DHT22;3168;51.684;6.954;2022-07-21T04:18:28;18.60;99.90
6270;DHT22;3168;51.684;6.954;2022-07-21T04:20:54;18.50;99.90
6270;DHT22;3168;51.684;6.954;2022-07-21T04:23:20;18.50;99.90
6270;DHT22;3168;51.684;6.954;2022-07-21T04:25:46;18.60;99.90
6270;DHT22;3168;51.684;6.954;2022-07-21T04:28:12;18.60;99.90
6270;DHT22;3168;51.684;6.954;2022-07-21T04:30:38;18.60;99.90
6270;DHT22;3168;51.684;6.954;2022-07-21T04:33:04;18.70;99.90
6270;DHT22;3168;51.684;6.954;2022-07-21T04:35:29;18.60;99.90
6270;DHT22;3168;51.684;6.954;2022-07-21T04:37:56;18.60;99.90
6270;DHT22;3168;51.684;6.954;2022-07-21T04:40:22;18.60;99.90
6270;DHT22;3168;51.684;6.954;2022-07-21T04:42:49;18.60;99.90
6270;DHT22;3168;51.684;6.954;2022-07-21T04:45:15;18.60;99.90
6270;DHT22;3168;51.684;6.954;2022-07-21T04:47:49;18.60;99.90
6270;DHT22;3168;51.684;6.954;2022-07-21T04:50:16;18.60;99.90
6270;DHT22;3168;51.684;6.954;2022-07-21T04:52:41;18.70;99.90
6270;DHT22;3168;51.684;6.954;2022-07-21T04:55:08;18.70;99.90
6270;DHT22;3168;51.684;6.954;2022-07-21T04:57:36;18.80;99.90
6270;DHT22;3168;51.684;6.954;2022-07-21T05:00:03;18.80;99.90
6270;DHT22;3168;51.684;6.954;2022-07-21T05:02:29;18.80;99.90
6270;DHT22;3168;51.684;6.954;2022-07-21T05:04:55;18.80;99.90
6270;DHT22;3168;51.684;6.954;2022-07-21T05:07:21;18.90;99.90
6270;DHT22;3168;51.684;6.954;2022-07-21T05:09:47;18.90;99.90
6270;DHT22;3168;51.684;6.954;2022-07-21T05:12:13;18.90;99.90
6270;DHT22;3168;51.684;6.954;2022-07-21T05:14:38;18.90;99.90
6270;DHT22;3168;51.684;6.954;2022-07-21T05:17:04;18.90;99.90
6270;DHT22;3168;51.684;6.954;2022-07-21T05:19:30;18.90;99.90
6270;DHT22;3168;51.684;6.954;2022-07-21T05:21:56;19.10;99.90
6270;DHT22;3168;51.684;6.954;2022-07-21T05:24:22;19.10;99.90
6270;DHT22;3168;51.684;6.954;2022-07-21T05:26:48;19.20;99.90
6270;DHT22;3168;51.684;6.954;2022-07-21T05:29:14;19.20;99.90
6270;DHT22;3168;51.684;6.954;2022-07-21T05:31:40;19.20;99.90
6270;DHT22;3168;51.684;6.954;2022-07-21T05:34:05;19.20;99.90
6270;DHT22;3168;51.684;6.954;2022-07-21T05:36:31;19.20;99.90
6270;DHT22;3168;51.684;6.954;2022-07-21T05:38:57;19.20;99.90
6270;DHT22;3168;51.684;6.954;2022-07-21T05:41:23;19.30;99.90
6270;DHT22;3168;51.684;6.954;2022-07-21T05:43:49;19.20;99.90
6270;DHT22;3168;51.684;6.954;2022-07-21T05:46:15;19.30;99.90
6270;DHT22;3168;51.684;6.954;2022-07-21T05:48:40;19.30;99.90
6270;DHT22;3168;51.684;6.954;2022-07-21T05:51:07;19.20;99.90
6270;DHT22;3168;51.684;6.954;2022-07-21T05:53:33;19.20;99.90
6270;DHT22;3168;51.684;6.954;2022-07-21T05:55:59;19.40;99.90
6270;DHT22;3168;51.684;6.954;2022-07-21T05:58:25;19.40;99.90
6270;DHT22;3168;51.684;6.954;2022-07-21T06:00:51;19.60;99.90
6270;DHT22;3168;51.684;6.954;2022-07-21T06:03:22;19.60;99.90
6270;DHT22;3168;51.684;6.954;2022-07-21T06:05:48;19.70;99.90
6270;DHT22;3168;51.684;6.954;2022-07-21T06:08:14;19.80;99.90
6270;DHT22;3168;51.684;6.954;2022-07-21T06:10:40;19.90;99.90
6270;DHT22;3168;51.684;6.954;2022-07-21T06:13:06;19.80;99.90
6270;DHT22;3168;51.684;6.954;2022-07-21T06:15:32;19.90;99.90
6270;DHT22;3168;51.684;6.954;2022-07-21T06:17:57;19.90;99.90
6270;DHT22;3168;51.684;6.954;2022-07-21T06:20:23;19.80;99.90
6270;DHT22;3168;51.684;6.954;2022-07-21T06:22:49;20.00;99.90
6270;DHT22;3168;51.684;6.954;2022-07-21T06:25:15;20.00;99.90
6270;DHT22;3168;51.684;6.954;2022-07-21T06:27:41;20.20;99.90
6270;DHT22;3168;51.684;6.954;2022-07-21T06:30:08;20.10;99.90
6270;DHT22;3168;51.684;6.954;2022-07-21T06:32:35;20.20;99.90
6270;DHT22;3168;51.684;6.954;2022-07-21T06:35:01;20.20;99.90
6270;DHT22;3168;51.684;6.954;2022-07-21T06:37:27;20.10;99.90
6270;DHT22;3168;51.684;6.954;2022-07-21T06:39:52;20.00;99.90
6270;DHT22;3168;51.684;6.954;2022-07-21T06:42:18;20.10;99.90
6270;DHT22;3168;51.684;6.954;2022-07-21T06:44:45;20.10;99.90
6270;DHT22;3168;51.684;6.954;2022-07-21T06:47:11;20.10;99.90
6270;DHT22;3168;51.684;6.954;2022-07-21T06:49:37;20.20;99.90
6270;DHT22;3168;51.684;6.954;2022-07-21T06:52:03;20.10;99.90
6270;DHT22;3168;51.684;6.954;2022-07-21T06:54:29;20.10;99.90
6270;DHT22;3168;51.684;6.954;2022-07-21T06:56:54;20.10;99.90
6270;DHT22;3168;51.684;6.954;2022-07-21T06:59:20;20.00;99.90
6270;DHT22;3168;51.684;6.954;2022-07-21T07:01:46;20.10;99.90
6270;DHT22;3168;51.684;6.954;2022-07-21T07:04:13;20.40;99.90
6270;DHT22;3168;51.684;6.954;2022-07-21T07:06:39;20.40;99.90
6270;DHT22;3168;51.684;6.954;2022-07-21T07:09:05;20.30;99.90
6270;DHT22;3168;51.684;6.954;2022-07-21T07:11:30;20.40;99.90
6270;DHT22;3168;51.684;6.954;2022-07-21T07:13:56;20.30;99.90
6270;DHT22;3168;51.684;6.954;2022-07-21T07:16:23;20.30;99.90
6270;DHT22;3168;51.684;6.954;2022-07-21T07:18:49;20.30;99.90
6270;DHT22;3168;51.684;6.954;2022-07-21T07:21:15;20.20;99.90
6270;DHT22;3168;51.684;6.954;2022-07-21T07:23:41;20.20;99.90
6270;DHT22;3168;51.684;6.954;2022-07-21T07:26:07;20.10;99.90
6270;DHT22;3168;51.684;6.954;2022-07-21T07:28:32;20.10;99.90
6270;DHT22;3168;51.684;6.954;2022-07-21T07:30:58;20.10;99.90
6270;DHT22;3168;51.684;6.954;2022-07-21T07:33:24;20.20;99.90
6270;DHT22;3168;51.684;6.954;2022-07-21T07:35:50;20.20;99.90
6270;DHT22;3168;51.684;6.954;2022-07-21T07:38:16;20.30;99.90
6270;DHT22;3168;51.684;6.954;2022-07-21T07:40:41;20.50;99.90
6270;DHT22;3168;51.684;6.954;2022-07-21T07:43:07;20.60;99.90
6270;DHT22;3168;51.684;6.954;2022-07-21T07:45:34;20.70;99.90
6270;DHT22;3168;51.684;6.954;2022-07-21T07:47:59;20.70;99.10
6270;DHT22;3168;51.684;6.954;2022-07-21T07:50:25;20.80;99.10
6270;DHT22;3168;51.684;6.954;2022-07-21T07:52:51;20.90;99.60
6270;DHT22;3168;51.684;6.954;2022-07-21T07:55:17;20.80;99.00
6270;DHT22;3168;51.684;6.954;2022-07-21T07:57:43;20.90;99.80
6270;DHT22;3168;51.684;6.954;2022-07-21T08:00:10;20.80;97.30
6270;DHT22;3168;51.684;6.954;2022-07-21T08:02:35;20.50;97.10
6270;DHT22;3168;51.684;6.954;2022-07-21T08:05:02;20.60;97.50
6270;DHT22;3168;51.684;6.954;2022-07-21T08:07:27;20.80;99.10
6270;DHT22;3168;51.684;6.954;2022-07-21T08:09:53;20.80;99.10
6270;DHT22;3168;51.684;6.954;2022-07-21T08:12:19;20.80;97.80
6270;DHT22;3168;51.684;6.954;2022-07-21T08:14:45;20.70;96.10
6270;DHT22;3168;51.684;6.954;2022-07-21T08:17:11;20.80;97.30
6270;DHT22;3168;51.684;6.954;2022-07-21T08:19:37;20.90;96.80
6270;DHT22;3168;51.684;6.954;2022-07-21T08:22:03;21.00;96.40
6270;DHT22;3168;51.684;6.954;2022-07-21T08:24:28;21.10;96.30
6270;DHT22;3168;51.684;6.954;2022-07-21T08:26:54;21.10;95.00
6270;DHT22;3168;51.684;6.954;2022-07-21T08:29:20;21.10;96.30
6270;DHT22;3168;51.684;6.954;2022-07-21T08:31:46;21.20;93.60
6270;DHT22;3168;51.684;6.954;2022-07-21T08:34:12;21.40;91.20
6270;DHT22;3168;51.684;6.954;2022-07-21T08:36:38;21.30;87.90
6270;DHT22;3168;51.684;6.954;2022-07-21T08:39:03;21.30;80.70
6270;DHT22;3168;51.684;6.954;2022-07-21T08:41:31;21.40;81.40
6270;DHT22;3168;51.684;6.954;2022-07-21T08:43:55;21.50;81.00
6270;DHT22;3168;51.684;6.954;2022-07-21T08:46:22;21.40;71.60
6270;DHT22;3168;51.684;6.954;2022-07-21T08:48:47;21.30;82.80
6270;DHT22;3168;51.684;6.954;2022-07-21T08:51:13;21.50;82.70
6270;DHT22;3168;51.684;6.954;2022-07-21T08:53:39;21.40;78.20
6270;DHT22;3168;51.684;6.954;2022-07-21T08:56:05;21.70;79.90
6270;DHT22;3168;51.684;6.954;2022-07-21T08:58:31;21.60;71.00
6270;DHT22;3168;51.684;6.954;2022-07-21T09:00:57;21.80;76.30
6270;DHT22;3168;51.684;6.954;2022-07-21T09:03:24;21.60;69.70
6270;DHT22;3168;51.684;6.954;2022-07-21T09:05:59;21.80;64.90
6270;DHT22;3168;51.684;6.954;2022-07-21T09:08:32;21.70;70.00
6270;DHT22;3168;51.684;6.954;2022-07-21T09:13:30;21.90;61.80
6270;DHT22;3168;51.684;6.954;2022-07-21T09:15:55;21.80;61.70
6270;DHT22;3168;51.684;6.954;2022-07-21T09:18:21;22.00;59.60
6270;DHT22;3168;51.684;6.954;2022-07-21T09:20:48;22.00;60.50
6270;DHT22;3168;51.684;6.954;2022-07-21T09:23:14;22.10;58.30
6270;DHT22;3168;51.684;6.954;2022-07-21T09:25:42;22.30;51.10
6270;DHT22;3168;51.684;6.954;2022-07-21T09:28:12;22.30;49.00
6270;DHT22;3168;51.684;6.954;2022-07-21T09:30:50;22.50;47.50
6270;DHT22;3168;51.684;6.954;2022-07-21T09:33:23;22.70;43.10
6270;DHT22;3168;51.684;6.954;2022-07-21T09:35:56;22.60;43.00
6270;DHT22;3168;51.684;6.954;2022-07-21T09:38:21;22.60;42.60
6270;DHT22;3168;51.684;6.954;2022-07-21T09:40:47;22.70;34.40
6270;DHT22;3168;51.684;6.954;2022-07-21T09:45:45;22.50;36.80
6270;DHT22;3168;51.684;6.954;2022-07-21T09:48:29;22.60;28.10
6270;DHT22;3168;51.684;6.954;2022-07-21T09:51:20;22.80;27.60
6270;DHT22;3168;51.684;6.954;2022-07-21T09:54:00;22.80;25.70
6270;DHT22;3168;51.684;6.954;2022-07-21T09:56:26;22.80;28.60
6270;DHT22;3168;51.684;6.954;2022-07-21T09:58:51;22.80;24.20
6270;DHT22;3168;51.684;6.954;2022-07-21T10:01:17;22.90;22.10
6270;DHT22;3168;51.684;6.954;2022-07-21T10:03:43;22.80;24.00
6270;DHT22;3168;51.684;6.954;2022-07-21T10:06:08;22.80;23.70
6270;DHT22;3168;51.684;6.954;2022-07-21T10:08:34;22.90;26.10
6270;DHT22;3168;51.684;6.954;2022-07-21T10:11:04;23.10;20.60
6270;DHT22;3168;51.684;6.954;2022-07-21T10:13:29;23.00;15.50
6270;DHT22;3168;51.684;6.954;2022-07-21T10:15:55;23.20;19.80
6270;DHT22;3168;51.684;6.954;2022-07-21T10:18:22;23.30;15.60
6270;DHT22;3168;51.684;6.954;2022-07-21T10:20:48;23.20;18.30
6270;DHT22;3168;51.684;6.954;2022-07-21T10:23:22;23.20;13.30
6270;DHT22;3168;51.684;6.954;2022-07-21T10:25:47;23.00;18.00
6270;DHT22;3168;51.684;6.954;2022-07-21T10:28:15;22.90;22.10
6270;DHT22;3168;51.684;6.954;2022-07-21T10:30:45;22.80;22.00
6270;DHT22;3168;51.684;6.954;2022-07-21T10:33:11;22.50;22.50
6270;DHT22;3168;51.684;6.954;2022-07-21T10:35:44;22.40;22.60
6270;DHT22;3168;51.684;6.954;2022-07-21T10:40:48;22.20;33.90
6270;DHT22;3168;51.684;6.954;2022-07-21T10:43:35;22.20;34.00
6270;DHT22;3168;51.684;6.954;2022-07-21T10:45:58;22.20;37.70
6270;DHT22;3168;51.684;6.954;2022-07-21T10:51:02;22.10;41.00
6270;DHT22;3168;51.684;6.954;2022-07-21T10:53:27;22.00;52.40
6270;DHT22;3168;51.684;6.954;2022-07-21T10:55:53;21.40;89.70
6270;DHT22;3168;51.684;6.954;2022-07-21T10:58:25;20.80;97.30
6270;DHT22;3168;51.684;6.954;2022-07-21T11:00:53;20.50;99.90
6270;DHT22;3168;51.684;6.954;2022-07-21T11:03:21;20.30;99.90
6270;DHT22;3168;51.684;6.954;2022-07-21T11:08:29;20.20;99.90
6270;DHT22;3168;51.684;6.954;2022-07-21T11:10:51;20.30;99.90
6270;DHT22;3168;51.684;6.954;2022-07-21T11:13:17;20.40;99.90
6270;DHT22;3168;51.684;6.954;2022-07-21T11:15:43;20.50;99.90
6270;DHT22;3168;51.684;6.954;2022-07-21T11:18:08;20.60;99.90
6270;DHT22;3168;51.684;6.954;2022-07-21T11:20:34;20.60;99.90
6270;DHT22;3168;51.684;6.954;2022-07-21T11:23:00;20.50;99.90
6270;DHT22;3168;51.684;6.954;2022-07-21T11:25:26;20.30;99.90
6270;DHT22;3168;51.684;6.954;2022-07-21T11:27:51;20.30;99.90
6270;DHT22;3168;51.684;6.954;2022-07-21T11:30:17;20.20;99.90
6270;DHT22;3168;51.684;6.954;2022-07-21T11:32:45;20.10;99.90
6270;DHT22;3168;51.684;6.954;2022-07-21T11:35:11;20.00;99.90
6270;DHT22;3168;51.684;6.954;2022-07-21T11:37:38;19.90;99.90
6270;DHT22;3168;51.684;6.954;2022-07-21T11:40:07;19.90;99.90
6270;DHT22;3168;51.684;6.954;2022-07-21T11:42:32;19.90;99.90
6270;DHT22;3168;51.684;6.954;2022-07-21T11:44:59;20.00;99.90
6270;DHT22;3168;51.684;6.954;2022-07-21T11:47:24;20.00;99.90
6270;DHT22;3168;51.684;6.954;2022-07-21T11:49:52;20.00;99.90
6270;DHT22;3168;51.684;6.954;2022-07-21T11:52:17;20.10;99.90
6270;DHT22;3168;51.684;6.954;2022-07-21T11:54:48;20.10;99.90
6270;DHT22;3168;51.684;6.954;2022-07-21T11:57:13;20.30;99.90
6270;DHT22;3168;51.684;6.954;2022-07-21T11:59:38;20.30;99.90
6270;DHT22;3168;51.684;6.954;2022-07-21T12:02:06;20.30;99.90
6270;DHT22;3168;51.684;6.954;2022-07-21T12:04:33;20.20;99.90
6270;DHT22;3168;51.684;6.954;2022-07-21T12:06:57;20.20;99.90
6270;DHT22;3168;51.684;6.954;2022-07-21T12:09:23;20.20;99.90
6270;DHT22;3168;51.684;6.954;2022-07-21T12:11:48;20.30;99.90
6270;DHT22;3168;51.684;6.954;2022-07-21T12:14:14;20.10;99.90
6270;DHT22;3168;51.684;6.954;2022-07-21T12:16:50;20.10;99.90
6270;DHT22;3168;51.684;6.954;2022-07-21T12:19:17;20.10;99.90
6270;DHT22;3168;51.684;6.954;2022-07-21T12:21:45;20.20;99.90
6270;DHT22;3168;51.684;6.954;2022-07-21T12:24:10;20.10;99.90
6270;DHT22;3168;51.684;6.954;2022-07-21T12:26:35;20.20;99.90
6270;DHT22;3168;51.684;6.954;2022-07-21T12:29:01;20.20;99.90
6270;DHT22;3168;51.684;6.954;2022-07-21T12:31:27;20.20;99.90
6270;DHT22;3168;51.684;6.954;2022-07-21T12:33:55;20.10;99.90
6270;DHT22;3168;51.684;6.954;2022-07-21T12:36:19;20.20;99.90
6270;DHT22;3168;51.684;6.954;2022-07-21T12:38:45;20.30;99.90
6270;DHT22;3168;51.684;6.954;2022-07-21T12:41:11;20.30;99.90
6270;DHT22;3168;51.684;6.954;2022-07-21T12:43:36;20.20;99.90
6270;DHT22;3168;51.684;6.954;2022-07-21T12:46:04;20.10;99.90
6270;DHT22;3168;51.684;6.954;2022-07-21T12:48:29;19.90;99.90
6270;DHT22;3168;51.684;6.954;2022-07-21T12:51:05;19.60;99.90
6270;DHT22;3168;51.684;6.954;2022-07-21T12:53:30;19.40;99.90
6270;DHT22;3168;51.684;6.954;2022-07-21T12:55:56;19.30;99.90
6270;DHT22;3168;51.684;6.954;2022-07-21T12:58:21;19.20;99.90
6270;DHT22;3168;51.684;6.954;2022-07-21T13:00:47;19.10;99.90
6270;DHT22;3168;51.684;6.954;2022-07-21T13:03:14;19.20;99.90
6270;DHT22;3168;51.684;6.954;2022-07-21T13:05:40;19.20;99.90
6270;DHT22;3168;51.684;6.954;2022-07-21T13:08:06;19.30;99.90
6270;DHT22;3168;51.684;6.954;2022-07-21T13:10:32;19.30;99.90
6270;DHT22;3168;51.684;6.954;2022-07-21T13:12:57;19.30;99.90
6270;DHT22;3168;51.684;6.954;2022-07-21T13:15:23;19.20;99.90
6270;DHT22;3168;51.684;6.954;2022-07-21T13:17:49;19.40;99.90
6270;DHT22;3168;51.684;6.954;2022-07-21T13:20:16;19.20;99.90
6270;DHT22;3168;51.684;6.954;2022-07-21T13:22:42;19.20;99.90
6270;DHT22;3168;51.684;6.954;2022-07-21T13:25:09;19.20;99.90
6270;DHT22;3168;51.684;6.954;2022-07-21T13:27:38;19.30;99.90
6270;DHT22;3168;51.684;6.954;2022-07-21T13:30:07;19.30;99.90
6270;DHT22;3168;51.684;6.954;2022-07-21T13:32:45;19.20;99.90
6270;DHT22;3168;51.684;6.954;2022-07-21T13:35:24;19.30;99.90
6270;DHT22;3168;51.684;6.954;2022-07-21T13:38:02;19.40;99.90
6270;DHT22;3168;51.684;6.954;2022-07-21T13:40:28;19.30;99.90
6270;DHT22;3168;51.684;6.954;2022-07-21T13:42:54;19.30;99.90
6270;DHT22;3168;51.684;6.954;2022-07-21T13:45:19;19.40;99.90
6270;DHT22;3168;51.684;6.954;2022-07-21T13:47:45;19.50;99.90
6270;DHT22;3168;51.684;6.954;2022-07-21T13:50:11;19.40;99.90
6270;DHT22;3168;51.684;6.954;2022-07-21T13:52:37;19.50;99.90
6270;DHT22;3168;51.684;6.954;2022-07-21T13:55:03;19.40;99.90
6270;DHT22;3168;51.684;6.954;2022-07-21T13:57:29;19.50;99.90
6270;DHT22;3168;51.684;6.954;2022-07-21T13:59:55;19.60;99.90
6270;DHT22;3168;51.684;6.954;2022-07-21T14:02:21;19.70;99.90
6270;DHT22;3168;51.684;6.954;2022-07-21T14:04:47;19.60;99.90
6270;DHT22;3168;51.684;6.954;2022-07-21T14:07:13;19.50;99.90
6270;DHT22;3168;51.684;6.954;2022-07-21T14:09:40;19.50;99.90
6270;DHT22;3168;51.684;6.954;2022-07-21T14:12:06;19.60;99.90
6270;DHT22;3168;51.684;6.954;2022-07-21T14:14:32;19.60;99.90
6270;DHT22;3168;51.684;6.954;2022-07-21T14:16:57;19.50;99.90
6270;DHT22;3168;51.684;6.954;2022-07-21T14:19:23;19.40;99.90
6270;DHT22;3168;51.684;6.954;2022-07-21T14:21:50;19.40;99.90
6270;DHT22;3168;51.684;6.954;2022-07-21T14:24:16;19.40;99.90
6270;DHT22;3168;51.684;6.954;2022-07-21T14:26:47;19.30;99.90
6270;DHT22;3168;51.684;6.954;2022-07-21T14:29:13;19.10;99.90
6270;DHT22;3168;51.684;6.954;2022-07-21T14:31:39;19.10;99.90
6270;DHT22;3168;51.684;6.954;2022-07-21T14:34:05;19.00;99.90
6270;DHT22;3168;51.684;6.954;2022-07-21T14:36:31;18.90;99.90
6270;DHT22;3168;51.684;6.954;2022-07-21T14:38:57;18.90;99.90
6270;DHT22;3168;51.684;6.954;2022-07-21T14:41:22;18.80;99.90
6270;DHT22;3168;51.684;6.954;2022-07-21T14:43:48;18.90;99.90
6270;DHT22;3168;51.684;6.954;2022-07-21T14:46:15;18.90;99.90
6270;DHT22;3168;51.684;6.954;2022-07-21T14:48:40;19.00;99.90
6270;DHT22;3168;51.684;6.954;2022-07-21T14:51:06;19.10;99.90
6270;DHT22;3168;51.684;6.954;2022-07-21T14:53:32;19.20;99.90
6270;DHT22;3168;51.684;6.954;2022-07-21T14:55:57;19.10;99.90
6270;DHT22;3168;51.684;6.954;2022-07-21T14:58:23;19.10;99.90
6270;DHT22;3168;51.684;6.954;2022-07-21T15:00:49;19.00;99.90
6270;DHT22;3168;51.684;6.954;2022-07-21T15:03:15;19.00;99.90
6270;DHT22;3168;51.684;6.954;2022-07-21T15:05:41;19.00;99.90
6270;DHT22;3168;51.684;6.954;2022-07-21T15:08:07;19.00;99.90
6270;DHT22;3168;51.684;6.954;2022-07-21T15:10:33;19.00;99.90
6270;DHT22;3168;51.684;6.954;2022-07-21T15:12:58;19.00;99.90
6270;DHT22;3168;51.684;6.954;2022-07-21T15:15:24;19.00;99.90
6270;DHT22;3168;51.684;6.954;2022-07-21T15:17:50;19.00;99.90
6270;DHT22;3168;51.684;6.954;2022-07-21T15:20:16;19.00;99.90
6270;DHT22;3168;51.684;6.954;2022-07-21T15:22:42;18.90;99.90
6270;DHT22;3168;51.684;6.954;2022-07-21T15:25:08;18.90;99.90
6270;DHT22;3168;51.684;6.954;2022-07-21T15:27:34;18.90;99.90
6270;DHT22;3168;51.684;6.954;2022-07-21T15:30:00;18.90;99.90
6270;DHT22;3168;51.684;6.954;2022-07-21T15:32:26;19.00;99.90
6270;DHT22;3168;51.684;6.954;2022-07-21T15:34:51;18.90;99.90
6270;DHT22;3168;51.684;6.954;2022-07-21T15:37:18;19.00;99.90
6270;DHT22;3168;51.684;6.954;2022-07-21T15:39:44;19.00;99.90
6270;DHT22;3168;51.684;6.954;2022-07-21T15:42:10;19.00;99.90
6270;DHT22;3168;51.684;6.954;2022-07-21T15:44:36;19.00;99.90
6270;DHT22;3168;51.684;6.954;2022-07-21T15:47:02;18.90;99.90
6270;DHT22;3168;51.684;6.954;2022-07-21T15:49:27;19.00;99.90
6270;DHT22;3168;51.684;6.954;2022-07-21T15:51:54;19.00;99.90
6270;DHT22;3168;51.684;6.954;2022-07-21T15:54:20;19.00;99.90
6270;DHT22;3168;51.684;6.954;2022-07-21T15:56:46;19.00;99.90
6270;DHT22;3168;51.684;6.954;2022-07-21T15:59:12;19.00;99.90
6270;DHT22;3168;51.684;6.954;2022-07-21T16:01:59;19.10;99.90
6270;DHT22;3168;51.684;6.954;2022-07-21T16:04:25;19.00;99.90
6270;DHT22;3168;51.684;6.954;2022-07-21T16:06:51;18.90;99.90
6270;DHT22;3168;51.684;6.954;2022-07-21T16:09:17;18.90;99.90